sensor_id;sensor_type;location;lat;lon;timestamp;pressure;altitude;pressure_sealevel;temperature;humidity
6032;BME280;3044;43.232;27.972;2023-09-07T00:01:36;45070.00;;;-143.84;66.21
6032;BME280;3044;43.232;27.972;2023-09-07T00:04:04;45073.81;;;-143.84;66.07
6032;BME280;3044;43.232;27.972;2023-09-07T00:06:32;45121.44;;;-143.84;66.27
6032;BME280;3044;43.232;27.972;2023-09-07T00:09:01;45066.22;;;-143.84;66.91
6032;BME280;3044;43.232;27.972;2023-09-07T00:11:30;45098.56;;;-143.84;67.07
6032;BME280;3044;43.232;27.972;2023-09-07T00:13:57;45089.06;;;-143.84;65.97
6032;BME280;3044;43.232;27.972;2023-09-07T00:16:24;45073.81;;;-143.84;66.62
6032;BME280;3044;43.232;27.972;2023-09-07T00:18:52;45089.06;;;-143.84;65.86
6032;BME280;3044;43.232;27.972;2023-09-07T00:21:19;45066.22;;;-143.84;65.34
6032;BME280;3044;43.232;27.972;2023-09-07T00:23:46;45085.25;;;-143.84;65.38
6032;BME280;3044;43.232;27.972;2023-09-07T00:26:14;45087.16;;;-143.84;65.39
6032;BME280;3044;43.232;27.972;2023-09-07T00:28:41;45068.13;;;-143.84;64.25
6032;BME280;3044;43.232;27.972;2023-09-07T00:31:08;45075.72;;;-143.84;63.77
6032;BME280;3044;43.232;27.972;2023-09-07T00:33:35;45070.00;;;-143.84;63.28
6032;BME280;3044;43.232;27.972;2023-09-07T00:36:03;45102.38;;;-143.84;62.78
6032;BME280;3044;43.232;27.972;2023-09-07T00:38:30;45049.06;;;-143.84;62.63
6032;BME280;3044;43.232;27.972;2023-09-07T00:40:57;45085.25;;;-143.84;62.40
6032;BME280;3044;43.232;27.972;2023-09-07T00:43:26;45083.34;;;-143.84;61.83
6032;BME280;3044;43.232;27.972;2023-09-07T00:45:53;45064.31;;;-143.84;61.13
6032;BME280;3044;43.232;27.972;2023-09-07T00:48:21;45068.13;;;-143.84;61.41
6032;BME280;3044;43.232;27.972;2023-09-07T00:50:49;45106.19;;;-143.84;60.82
6032;BME280;3044;43.232;27.972;2023-09-07T00:53:16;45083.34;;;-143.84;60.74
6032;BME280;3044;43.232;27.972;2023-09-07T00:55:44;45064.31;;;-143.84;59.96
6032;BME280;3044;43.232;27.972;2023-09-07T00:58:12;45077.63;;;-143.84;59.92
6032;BME280;3044;43.232;27.972;2023-09-07T01:00:41;45068.13;;;-143.84;59.30
6032;BME280;3044;43.232;27.972;2023-09-07T01:03:08;45068.13;;;-143.84;59.15
6032;BME280;3044;43.232;27.972;2023-09-07T01:05:43;45096.66;;;-143.84;58.70
6032;BME280;3044;43.232;27.972;2023-09-07T01:08:14;45094.78;;;-143.84;58.00
6032;BME280;3044;43.232;27.972;2023-09-07T01:10:42;45054.78;;;-143.84;57.65
6032;BME280;3044;43.232;27.972;2023-09-07T01:13:09;45077.63;;;-143.84;56.88
6032;BME280;3044;43.232;27.972;2023-09-07T01:15:37;45068.13;;;-143.84;56.42
6032;BME280;3044;43.232;27.972;2023-09-07T01:18:06;45075.72;;;-143.84;55.93
6032;BME280;3044;43.232;27.972;2023-09-07T01:20:35;45085.25;;;-143.84;55.46
6032;BME280;3044;43.232;27.972;2023-09-07T01:23:05;45098.56;;;-143.84;55.66
6032;BME280;3044;43.232;27.972;2023-09-07T01:25:32;45089.06;;;-143.84;55.88
6032;BME280;3044;43.232;27.972;2023-09-07T01:28:00;45077.63;;;-143.84;56.41
6032;BME280;3044;43.232;27.972;2023-09-07T01:30:28;45079.53;;;-143.84;56.82
6032;BME280;3044;43.232;27.972;2023-09-07T01:32:55;45068.13;;;-143.84;57.62
6032;BME280;3044;43.232;27.972;2023-09-07T01:35:22;45058.59;;;-143.84;57.88
6032;BME280;3044;43.232;27.972;2023-09-07T01:37:50;45075.72;;;-143.84;58.55
6032;BME280;3044;43.232;27.972;2023-09-07T01:40:19;45068.13;;;-143.84;59.17
6032;BME280;3044;43.232;27.972;2023-09-07T01:42:46;45068.13;;;-143.84;59.83
6032;BME280;3044;43.232;27.972;2023-09-07T01:45:13;45083.34;;;-143.84;60.60
6032;BME280;3044;43.232;27.972;2023-09-07T01:47:39;45077.63;;;-143.84;61.35
6032;BME280;3044;43.232;27.972;2023-09-07T01:50:07;45083.34;;;-143.84;62.19
6032;BME280;3044;43.232;27.972;2023-09-07T01:52:34;45070.00;;;-143.84;62.88
6032;BME280;3044;43.232;27.972;2023-09-07T01:55:01;45079.53;;;-143.84;63.34
6032;BME280;3044;43.232;27.972;2023-09-07T01:57:31;45083.34;;;-143.84;63.49
6032;BME280;3044;43.232;27.972;2023-09-07T01:59:58;45085.25;;;-143.84;64.89
6032;BME280;3044;43.232;27.972;2023-09-07T02:02:25;45098.56;;;-143.84;65.80
6032;BME280;3044;43.232;27.972;2023-09-07T02:04:52;45094.78;;;-143.84;67.00
6032;BME280;3044;43.232;27.972;2023-09-07T02:07:19;45085.25;;;-143.84;68.71
6032;BME280;3044;43.232;27.972;2023-09-07T02:09:46;45081.44;;;-143.84;69.52
6032;BME280;3044;43.232;27.972;2023-09-07T02:12:13;45075.72;;;-143.84;70.32
6032;BME280;3044;43.232;27.972;2023-09-07T02:14:42;45075.72;;;-143.84;71.33
6032;BME280;3044;43.232;27.972;2023-09-07T02:17:09;45102.38;;;-143.84;71.98
6032;BME280;3044;43.232;27.972;2023-09-07T02:19:39;45094.78;;;-143.84;72.48
6032;BME280;3044;43.232;27.972;2023-09-07T02:22:07;45071.91;;;-143.84;73.09
6032;BME280;3044;43.232;27.972;2023-09-07T02:24:34;45077.63;;;-143.84;73.57
6032;BME280;3044;43.232;27.972;2023-09-07T02:27:01;45066.22;;;-143.84;73.93
6032;BME280;3044;43.232;27.972;2023-09-07T02:29:28;45096.66;;;-143.84;74.10
6032;BME280;3044;43.232;27.972;2023-09-07T02:31:56;45096.66;;;-143.84;73.76
6032;BME280;3044;43.232;27.972;2023-09-07T02:34:24;45098.56;;;-143.84;73.79
6032;BME280;3044;43.232;27.972;2023-09-07T02:36:51;45106.19;;;-143.84;73.76
6032;BME280;3044;43.232;27.972;2023-09-07T02:39:18;45104.28;;;-143.84;74.01
6032;BME280;3044;43.232;27.972;2023-09-07T02:41:45;45094.78;;;-143.84;74.43
6032;BME280;3044;43.232;27.972;2023-09-07T02:44:12;45087.16;;;-143.84;74.90
6032;BME280;3044;43.232;27.972;2023-09-07T02:46:39;45104.28;;;-143.84;75.38
6032;BME280;3044;43.232;27.972;2023-09-07T02:49:08;45106.19;;;-143.84;75.50
6032;BME280;3044;43.232;27.972;2023-09-07T02:51:35;45094.78;;;-143.84;76.43
6032;BME280;3044;43.232;27.972;2023-09-07T02:54:04;45096.66;;;-143.84;75.83
6032;BME280;3044;43.232;27.972;2023-09-07T02:56:31;45125.22;;;-143.84;76.11
6032;BME280;3044;43.232;27.972;2023-09-07T02:58:58;45100.47;;;-143.84;75.92
6032;BME280;3044;43.232;27.972;2023-09-07T03:01:25;45094.78;;;-143.84;75.55
6032;BME280;3044;43.232;27.972;2023-09-07T03:03:52;45083.34;;;-143.84;75.21
6032;BME280;3044;43.232;27.972;2023-09-07T03:06:21;45096.66;;;-143.84;74.95
6032;BME280;3044;43.232;27.972;2023-09-07T03:08:48;45092.88;;;-143.84;74.13
6032;BME280;3044;43.232;27.972;2023-09-07T03:11:15;45075.72;;;-143.84;73.36
6032;BME280;3044;43.232;27.972;2023-09-07T03:13:43;45066.22;;;-143.84;72.53
6032;BME280;3044;43.232;27.972;2023-09-07T03:16:10;45081.44;;;-143.84;72.22
6032;BME280;3044;43.232;27.972;2023-09-07T03:18:37;45098.56;;;-143.84;71.89
6032;BME280;3044;43.232;27.972;2023-09-07T03:21:05;45079.53;;;-143.84;71.38
6032;BME280;3044;43.232;27.972;2023-09-07T03:23:33;45090.97;;;-143.84;70.89
6032;BME280;3044;43.232;27.972;2023-09-07T03:26:00;45111.91;;;-143.84;70.93
6032;BME280;3044;43.232;27.972;2023-09-07T03:28:28;45094.78;;;-143.84;70.70
6032;BME280;3044;43.232;27.972;2023-09-07T03:30:55;45117.63;;;-143.84;70.57
6032;BME280;3044;43.232;27.972;2023-09-07T03:33:22;45096.66;;;-143.84;70.35
6032;BME280;3044;43.232;27.972;2023-09-07T03:35:50;45085.25;;;-143.84;70.33
6032;BME280;3044;43.232;27.972;2023-09-07T03:38:17;45077.63;;;-143.84;70.08
6032;BME280;3044;43.232;27.972;2023-09-07T03:40:46;45113.81;;;-143.84;70.12
6032;BME280;3044;43.232;27.972;2023-09-07T03:43:13;45106.19;;;-143.84;70.23
6032;BME280;3044;43.232;27.972;2023-09-07T03:45:40;45098.56;;;-143.84;70.12
6032;BME280;3044;43.232;27.972;2023-09-07T03:48:07;45085.25;;;-143.84;70.14
6032;BME280;3044;43.232;27.972;2023-09-07T03:50:35;45087.16;;;-143.84;69.69
6032;BME280;3044;43.232;27.972;2023-09-07T03:53:02;45115.72;;;-143.84;69.93
6032;BME280;3044;43.232;27.972;2023-09-07T03:55:30;45106.19;;;-143.84;69.84
6032;BME280;3044;43.232;27.972;2023-09-07T03:57:58;45090.97;;;-143.84;70.50
6032;BME280;3044;43.232;27.972;2023-09-07T04:00:25;45110.00;;;-143.84;70.94
6032;BME280;3044;43.232;27.972;2023-09-07T04:02:52;45106.19;;;-143.84;71.17
6032;BME280;3044;43.232;27.972;2023-09-07T04:05:21;45092.88;;;-143.84;71.36
6032;BME280;3044;43.232;27.972;2023-09-07T04:07:50;45081.44;;;-143.84;71.37
6032;BME280;3044;43.232;27.972;2023-09-07T04:10:17;45087.16;;;-143.84;71.45
6032;BME280;3044;43.232;27.972;2023-09-07T04:12:45;45087.16;;;-143.84;71.33
6032;BME280;3044;43.232;27.972;2023-09-07T04:15:14;45106.19;;;-143.84;71.18
6032;BME280;3044;43.232;27.972;2023-09-07T04:17:41;45100.47;;;-143.84;70.48
6032;BME280;3044;43.232;27.972;2023-09-07T04:20:09;45102.38;;;-143.84;70.84
6032;BME280;3044;43.232;27.972;2023-09-07T04:22:38;45106.19;;;-143.84;70.59
6032;BME280;3044;43.232;27.972;2023-09-07T04:25:06;45100.47;;;-143.84;70.40
6032;BME280;3044;43.232;27.972;2023-09-07T04:27:33;45089.06;;;-143.84;70.38
6032;BME280;3044;43.232;27.972;2023-09-07T04:30:00;45090.97;;;-143.84;70.11
6032;BME280;3044;43.232;27.972;2023-09-07T04:32:28;45096.66;;;-143.84;69.96
6032;BME280;3044;43.232;27.972;2023-09-07T04:34:56;45113.81;;;-143.84;69.85
6032;BME280;3044;43.232;27.972;2023-09-07T04:37:25;45070.00;;;-143.84;69.83
6032;BME280;3044;43.232;27.972;2023-09-07T04:39:52;45073.81;;;-143.84;69.62
6032;BME280;3044;43.232;27.972;2023-09-07T04:42:20;45079.53;;;-143.84;69.60
6032;BME280;3044;43.232;27.972;2023-09-07T04:44:47;45098.56;;;-143.84;69.06
6032;BME280;3044;43.232;27.972;2023-09-07T04:47:15;45096.66;;;-143.84;67.99
6032;BME280;3044;43.232;27.972;2023-09-07T04:49:48;45083.34;;;-143.84;67.10
6032;BME280;3044;43.232;27.972;2023-09-07T04:52:16;45098.56;;;-143.84;65.82
6032;BME280;3044;43.232;27.972;2023-09-07T04:54:43;45079.53;;;-143.84;64.33
6032;BME280;3044;43.232;27.972;2023-09-07T04:57:11;45075.72;;;-143.84;62.69
6032;BME280;3044;43.232;27.972;2023-09-07T04:59:38;45056.69;;;-143.84;61.09
6032;BME280;3044;43.232;27.972;2023-09-07T05:02:05;45037.66;;;-143.84;59.96
6032;BME280;3044;43.232;27.972;2023-09-07T05:04:32;45083.34;;;-143.84;58.63
6032;BME280;3044;43.232;27.972;2023-09-07T05:07:00;45052.88;;;-143.84;56.88
6032;BME280;3044;43.232;27.972;2023-09-07T05:09:28;45022.41;;;-143.84;55.42
6032;BME280;3044;43.232;27.972;2023-09-07T05:11:56;45050.97;;;-143.84;53.44
6032;BME280;3044;43.232;27.972;2023-09-07T05:14:23;45052.88;;;-143.84;53.15
6032;BME280;3044;43.232;27.972;2023-09-07T05:16:50;45041.44;;;-143.84;52.32
6032;BME280;3044;43.232;27.972;2023-09-07T05:19:18;45028.13;;;-143.84;51.13
6032;BME280;3044;43.232;27.972;2023-09-07T05:21:45;45026.22;;;-143.84;49.93
6032;BME280;3044;43.232;27.972;2023-09-07T05:24:14;45026.22;;;-143.84;50.13
6032;BME280;3044;43.232;27.972;2023-09-07T05:26:42;45041.44;;;-143.84;48.78
6032;BME280;3044;43.232;27.972;2023-09-07T05:29:09;45028.13;;;-143.84;48.77
6032;BME280;3044;43.232;27.972;2023-09-07T05:31:36;45033.84;;;-143.84;47.95
6032;BME280;3044;43.232;27.972;2023-09-07T05:34:03;45009.09;;;-143.84;47.68
6032;BME280;3044;43.232;27.972;2023-09-07T05:36:31;45018.59;;;-143.84;47.57
6032;BME280;3044;43.232;27.972;2023-09-07T05:38:58;44999.56;;;-143.84;47.36
6032;BME280;3044;43.232;27.972;2023-09-07T05:41:28;45022.41;;;-143.84;46.61
6032;BME280;3044;43.232;27.972;2023-09-07T05:43:56;45028.13;;;-143.84;46.75
6032;BME280;3044;43.232;27.972;2023-09-07T05:46:23;45035.75;;;-143.84;46.94
6032;BME280;3044;43.232;27.972;2023-09-07T05:48:50;45018.59;;;-143.84;46.54
6032;BME280;3044;43.232;27.972;2023-09-07T05:51:17;45010.97;;;-143.84;46.69
6032;BME280;3044;43.232;27.972;2023-09-07T05:53:45;45016.69;;;-143.84;46.70
6032;BME280;3044;43.232;27.972;2023-09-07T05:56:12;45007.19;;;-143.84;46.52
6032;BME280;3044;43.232;27.972;2023-09-07T05:58:40;45003.38;;;-143.84;46.62
6032;BME280;3044;43.232;27.972;2023-09-07T06:01:07;45030.03;;;-143.84;46.54
6032;BME280;3044;43.232;27.972;2023-09-07T06:03:35;45009.09;;;-143.84;47.00
6032;BME280;3044;43.232;27.972;2023-09-07T06:06:02;44982.41;;;-143.84;46.62
6032;BME280;3044;43.232;27.972;2023-09-07T06:08:29;45018.59;;;-143.84;46.81
6032;BME280;3044;43.232;27.972;2023-09-07T06:10:56;44993.84;;;-143.84;47.07
6032;BME280;3044;43.232;27.972;2023-09-07T06:13:23;44990.03;;;-143.84;46.54
6032;BME280;3044;43.232;27.972;2023-09-07T06:15:52;44984.31;;;-143.84;46.66
6032;BME280;3044;43.232;27.972;2023-09-07T06:18:19;44997.66;;;-143.84;46.36
6032;BME280;3044;43.232;27.972;2023-09-07T06:20:46;44993.84;;;-143.84;45.67
6032;BME280;3044;43.232;27.972;2023-09-07T06:23:13;44988.13;;;-143.84;45.60
6032;BME280;3044;43.232;27.972;2023-09-07T06:25:40;45020.50;;;-143.84;45.61
6032;BME280;3044;43.232;27.972;2023-09-07T06:28:07;45003.38;;;-143.84;45.15
6032;BME280;3044;43.232;27.972;2023-09-07T06:30:34;44980.53;;;-143.84;44.71
6032;BME280;3044;43.232;27.972;2023-09-07T06:33:04;44982.41;;;-143.84;44.29
6032;BME280;3044;43.232;27.972;2023-09-07T06:35:31;44984.31;;;-143.84;43.93
6032;BME280;3044;43.232;27.972;2023-09-07T06:37:58;44969.09;;;-143.84;43.08
6032;BME280;3044;43.232;27.972;2023-09-07T06:40:25;44980.53;;;-143.84;43.69
6032;BME280;3044;43.232;27.972;2023-09-07T06:42:53;44965.28;;;-143.84;43.45
6032;BME280;3044;43.232;27.972;2023-09-07T06:45:22;44957.66;;;-143.84;43.05
6032;BME280;3044;43.232;27.972;2023-09-07T06:47:49;44950.06;;;-143.84;42.60
6032;BME280;3044;43.232;27.972;2023-09-07T06:50:19;44980.53;;;-143.84;42.41
6032;BME280;3044;43.232;27.972;2023-09-07T06:52:46;44980.53;;;-143.84;41.64
6032;BME280;3044;43.232;27.972;2023-09-07T06:55:14;44953.88;;;-143.84;42.14
6032;BME280;3044;43.232;27.972;2023-09-07T06:57:41;44961.47;;;-143.84;42.21
6032;BME280;3044;43.232;27.972;2023-09-07T07:00:09;44940.53;;;-143.84;42.08
6032;BME280;3044;43.232;27.972;2023-09-07T07:02:37;44936.72;;;-143.84;42.10
6032;BME280;3044;43.232;27.972;2023-09-07T07:05:06;44948.16;;;-143.84;40.68
6032;BME280;3044;43.232;27.972;2023-09-07T07:07:35;44944.34;;;-143.84;41.26
6032;BME280;3044;43.232;27.972;2023-09-07T07:10:03;44932.91;;;-143.84;40.80
6032;BME280;3044;43.232;27.972;2023-09-07T07:12:30;44944.34;;;-143.84;40.66
6032;BME280;3044;43.232;27.972;2023-09-07T07:15:00;44917.69;;;-143.84;40.49
6032;BME280;3044;43.232;27.972;2023-09-07T07:17:27;44911.97;;;-143.84;40.06
6032;BME280;3044;43.232;27.972;2023-09-07T07:19:54;44927.19;;;-143.84;40.11
6032;BME280;3044;43.232;27.972;2023-09-07T07:22:21;44911.97;;;-143.84;40.19
6032;BME280;3044;43.232;27.972;2023-09-07T07:24:50;44917.69;;;-143.84;39.39
6032;BME280;3044;43.232;27.972;2023-09-07T07:27:17;44931.00;;;-143.84;39.40
6032;BME280;3044;43.232;27.972;2023-09-07T07:29:44;44923.41;;;-143.84;38.61
6032;BME280;3044;43.232;27.972;2023-09-07T07:32:11;44921.50;;;-143.84;38.89
6032;BME280;3044;43.232;27.972;2023-09-07T07:34:38;44921.50;;;-143.84;39.35
6032;BME280;3044;43.232;27.972;2023-09-07T07:37:06;44948.16;;;-143.84;38.92
6032;BME280;3044;43.232;27.972;2023-09-07T07:39:33;44910.06;;;-143.84;37.96
6032;BME280;3044;43.232;27.972;2023-09-07T07:42:02;44932.91;;;-143.84;38.14
6032;BME280;3044;43.232;27.972;2023-09-07T07:44:31;44915.78;;;-143.84;38.44
6032;BME280;3044;43.232;27.972;2023-09-07T07:46:59;44931.00;;;-143.84;38.43
6032;BME280;3044;43.232;27.972;2023-09-07T07:49:26;44921.50;;;-143.84;38.32
6032;BME280;3044;43.232;27.972;2023-09-07T07:51:53;44921.50;;;-143.84;38.35
6032;BME280;3044;43.232;27.972;2023-09-07T07:54:21;44894.84;;;-143.84;38.81
6032;BME280;3044;43.232;27.972;2023-09-07T07:56:50;44925.31;;;-143.84;38.72
6032;BME280;3044;43.232;27.972;2023-09-07T07:59:19;44919.59;;;-143.84;39.49
6032;BME280;3044;43.232;27.972;2023-09-07T08:01:46;44911.97;;;-143.84;38.95
6032;BME280;3044;43.232;27.972;2023-09-07T08:04:14;44911.97;;;-143.84;39.58
6032;BME280;3044;43.232;27.972;2023-09-07T08:06:41;44944.34;;;-143.84;39.34
6032;BME280;3044;43.232;27.972;2023-09-07T08:09:08;44917.69;;;-143.84;40.36
6032;BME280;3044;43.232;27.972;2023-09-07T08:11:35;44923.41;;;-143.84;41.07
6032;BME280;3044;43.232;27.972;2023-09-07T08:14:04;44942.44;;;-143.84;40.66
6032;BME280;3044;43.232;27.972;2023-09-07T08:16:33;44942.44;;;-143.84;40.48
6032;BME280;3044;43.232;27.972;2023-09-07T08:19:00;44919.59;;;-143.84;40.61
6032;BME280;3044;43.232;27.972;2023-09-07T08:21:27;44929.09;;;-143.84;41.31
6032;BME280;3044;43.232;27.972;2023-09-07T08:23:54;44950.06;;;-143.84;41.74
6032;BME280;3044;43.232;27.972;2023-09-07T08:26:22;44925.31;;;-143.84;40.97
6032;BME280;3044;43.232;27.972;2023-09-07T08:28:49;44887.22;;;-143.84;40.52
6032;BME280;3044;43.232;27.972;2023-09-07T08:31:16;44877.69;;;-143.84;41.36
6032;BME280;3044;43.232;27.972;2023-09-07T08:33:49;44919.59;;;-143.84;40.86
6032;BME280;3044;43.232;27.972;2023-09-07T08:36:17;44944.34;;;-143.84;41.33
6032;BME280;3044;43.232;27.972;2023-09-07T08:38:47;44894.84;;;-143.84;39.89
6032;BME280;3044;43.232;27.972;2023-09-07T08:41:15;44896.75;;;-143.84;39.87
6032;BME280;3044;43.232;27.972;2023-09-07T08:43:45;44921.50;;;-143.84;40.52
6032;BME280;3044;43.232;27.972;2023-09-07T08:46:14;44906.25;;;-143.84;40.29
6032;BME280;3044;43.232;27.972;2023-09-07T08:48:42;44910.06;;;-143.84;39.25
6032;BME280;3044;43.232;27.972;2023-09-07T08:51:12;44900.53;;;-143.84;39.50
6032;BME280;3044;43.232;27.972;2023-09-07T08:53:40;44864.38;;;-143.84;39.88
6032;BME280;3044;43.232;27.972;2023-09-07T08:56:11;44873.88;;;-143.84;39.74
6032;BME280;3044;43.232;27.972;2023-09-07T08:58:39;44877.69;;;-143.84;38.15
6032;BME280;3044;43.232;27.972;2023-09-07T09:01:07;44883.41;;;-143.84;38.29
6032;BME280;3044;43.232;27.972;2023-09-07T09:03:35;44900.53;;;-143.84;39.66
6032;BME280;3044;43.232;27.972;2023-09-07T09:06:03;44879.59;;;-143.84;39.47
6032;BME280;3044;43.232;27.972;2023-09-07T09:08:43;44906.25;;;-143.84;39.72
6032;BME280;3044;43.232;27.972;2023-09-07T09:11:10;44904.34;;;-143.84;38.96
6032;BME280;3044;43.232;27.972;2023-09-07T09:13:39;44887.22;;;-143.84;39.15
6032;BME280;3044;43.232;27.972;2023-09-07T09:16:07;44885.31;;;-143.84;38.66
6032;BME280;3044;43.232;27.972;2023-09-07T09:18:34;44892.94;;;-143.84;39.79
6032;BME280;3044;43.232;27.972;2023-09-07T09:21:01;44873.88;;;-143.84;38.24
6032;BME280;3044;43.232;27.972;2023-09-07T09:23:31;44902.44;;;-143.84;38.08
6032;BME280;3044;43.232;27.972;2023-09-07T09:26:00;44892.94;;;-143.84;37.64
6032;BME280;3044;43.232;27.972;2023-09-07T09:28:30;44885.31;;;-143.84;37.76
6032;BME280;3044;43.232;27.972;2023-09-07T09:30:58;44883.41;;;-143.84;37.87
6032;BME280;3044;43.232;27.972;2023-09-07T09:33:26;44915.78;;;-143.84;37.59
6032;BME280;3044;43.232;27.972;2023-09-07T09:35:53;44871.97;;;-143.84;37.70
6032;BME280;3044;43.232;27.972;2023-09-07T09:38:22;44910.06;;;-143.84;38.31
6032;BME280;3044;43.232;27.972;2023-09-07T09:40:49;44894.84;;;-143.84;38.80
6032;BME280;3044;43.232;27.972;2023-09-07T09:43:19;44891.03;;;-143.84;37.48
6032;BME280;3044;43.232;27.972;2023-09-07T09:45:48;44870.09;;;-143.84;38.19
6032;BME280;3044;43.232;27.972;2023-09-07T09:48:16;44877.69;;;-143.84;37.25
6032;BME280;3044;43.232;27.972;2023-09-07T09:50:46;44908.16;;;-143.84;38.04
6032;BME280;3044;43.232;27.972;2023-09-07T09:53:14;44891.03;;;-143.84;37.90
6032;BME280;3044;43.232;27.972;2023-09-07T09:55:44;44889.13;;;-143.84;38.03
6032;BME280;3044;43.232;27.972;2023-09-07T09:58:13;44894.84;;;-143.84;37.75
6032;BME280;3044;43.232;27.972;2023-09-07T10:00:42;44892.94;;;-143.84;37.96
6032;BME280;3044;43.232;27.972;2023-09-07T10:03:13;44927.19;;;-143.84;38.75
6032;BME280;3044;43.232;27.972;2023-09-07T10:05:44;44902.44;;;-143.84;38.40
6032;BME280;3044;43.232;27.972;2023-09-07T10:08:12;44917.69;;;-143.84;37.89
6032;BME280;3044;43.232;27.972;2023-09-07T10:10:41;44904.34;;;-143.84;38.85
6032;BME280;3044;43.232;27.972;2023-09-07T10:13:09;44944.34;;;-143.84;39.09
6032;BME280;3044;43.232;27.972;2023-09-07T10:15:36;44917.69;;;-143.84;38.88
6032;BME280;3044;43.232;27.972;2023-09-07T10:18:09;44927.19;;;-143.84;38.22
6032;BME280;3044;43.232;27.972;2023-09-07T10:20:54;44934.81;;;-143.84;39.55
6032;BME280;3044;43.232;27.972;2023-09-07T10:23:22;44900.53;;;-143.84;40.35
6032;BME280;3044;43.232;27.972;2023-09-07T10:25:51;44927.19;;;-143.84;39.58
6032;BME280;3044;43.232;27.972;2023-09-07T10:28:22;44927.19;;;-143.84;40.88
6032;BME280;3044;43.232;27.972;2023-09-07T10:31:01;44919.59;;;-143.84;39.64
6032;BME280;3044;43.232;27.972;2023-09-07T10:33:32;44923.41;;;-143.84;40.71
6032;BME280;3044;43.232;27.972;2023-09-07T10:36:00;44910.06;;;-143.84;39.98
6032;BME280;3044;43.232;27.972;2023-09-07T10:38:28;44889.13;;;-143.84;40.24
6032;BME280;3044;43.232;27.972;2023-09-07T10:40:56;44936.72;;;-143.84;39.86
6032;BME280;3044;43.232;27.972;2023-09-07T10:43:25;44955.75;;;-143.84;40.01
6032;BME280;3044;43.232;27.972;2023-09-07T10:45:53;44915.78;;;-143.84;40.60
6032;BME280;3044;43.232;27.972;2023-09-07T10:48:20;44931.00;;;-143.84;41.34
6032;BME280;3044;43.232;27.972;2023-09-07T10:50:49;44921.50;;;-143.84;40.82
6032;BME280;3044;43.232;27.972;2023-09-07T10:53:24;44908.16;;;-143.84;41.03
6032;BME280;3044;43.232;27.972;2023-09-07T10:55:53;44898.66;;;-143.84;40.18
6032;BME280;3044;43.232;27.972;2023-09-07T10:58:29;44931.00;;;-143.84;40.34
6032;BME280;3044;43.232;27.972;2023-09-07T11:00:58;44931.00;;;-143.84;41.27
6032;BME280;3044;43.232;27.972;2023-09-07T11:03:27;44944.34;;;-143.84;40.41
6032;BME280;3044;43.232;27.972;2023-09-07T11:05:59;44950.06;;;-143.84;41.64
6032;BME280;3044;43.232;27.972;2023-09-07T11:08:29;44892.94;;;-143.84;41.63
6032;BME280;3044;43.232;27.972;2023-09-07T11:10:56;44921.50;;;-143.84;40.90
6032;BME280;3044;43.232;27.972;2023-09-07T11:13:24;44944.34;;;-143.84;41.29
6032;BME280;3044;43.232;27.972;2023-09-07T11:15:54;44923.41;;;-143.84;41.36
6032;BME280;3044;43.232;27.972;2023-09-07T11:18:22;44961.47;;;-143.84;42.27
6032;BME280;3044;43.232;27.972;2023-09-07T11:20:50;44934.81;;;-143.84;42.06
6032;BME280;3044;43.232;27.972;2023-09-07T11:23:20;44944.34;;;-143.84;42.70
6032;BME280;3044;43.232;27.972;2023-09-07T11:25:48;44936.72;;;-143.84;42.12
6032;BME280;3044;43.232;27.972;2023-09-07T11:28:17;44957.66;;;-143.84;43.30
6032;BME280;3044;43.232;27.972;2023-09-07T11:30:51;44963.38;;;-143.84;42.84
6032;BME280;3044;43.232;27.972;2023-09-07T11:33:21;44972.91;;;-143.84;43.98
6032;BME280;3044;43.232;27.972;2023-09-07T11:35:50;44957.66;;;-143.84;43.65
6032;BME280;3044;43.232;27.972;2023-09-07T11:38:20;44934.81;;;-143.84;44.61
6032;BME280;3044;43.232;27.972;2023-09-07T11:40:48;44944.34;;;-143.84;44.00
6032;BME280;3044;43.232;27.972;2023-09-07T11:43:17;44976.72;;;-143.84;44.18
6032;BME280;3044;43.232;27.972;2023-09-07T11:45:49;44957.66;;;-143.84;45.31
6032;BME280;3044;43.232;27.972;2023-09-07T11:48:17;44948.16;;;-143.84;44.47
6032;BME280;3044;43.232;27.972;2023-09-07T11:50:44;44982.41;;;-143.84;44.31
6032;BME280;3044;43.232;27.972;2023-09-07T11:53:12;44971.00;;;-143.84;45.52
6032;BME280;3044;43.232;27.972;2023-09-07T11:55:41;44976.72;;;-143.84;44.98
6032;BME280;3044;43.232;27.972;2023-09-07T11:58:09;44984.31;;;-143.84;44.53
6032;BME280;3044;43.232;27.972;2023-09-07T12:00:36;44946.25;;;-143.84;45.12
6032;BME280;3044;43.232;27.972;2023-09-07T12:03:05;44942.44;;;-143.84;46.33
6032;BME280;3044;43.232;27.972;2023-09-07T12:05:33;44950.06;;;-143.84;44.47
6032;BME280;3044;43.232;27.972;2023-09-07T12:08:02;44961.47;;;-143.84;46.21
6032;BME280;3044;43.232;27.972;2023-09-07T12:10:30;44942.44;;;-143.84;45.07
6032;BME280;3044;43.232;27.972;2023-09-07T12:12:59;44951.97;;;-143.84;45.67
6032;BME280;3044;43.232;27.972;2023-09-07T12:15:26;44953.88;;;-143.84;45.58
6032;BME280;3044;43.232;27.972;2023-09-07T12:17:54;44946.25;;;-143.84;46.21
6032;BME280;3044;43.232;27.972;2023-09-07T12:20:22;44959.56;;;-143.84;46.05
6032;BME280;3044;43.232;27.972;2023-09-07T12:22:50;44951.97;;;-143.84;46.89
6032;BME280;3044;43.232;27.972;2023-09-07T12:25:17;44961.47;;;-143.84;45.29
6032;BME280;3044;43.232;27.972;2023-09-07T12:27:44;44953.88;;;-143.84;45.89
6032;BME280;3044;43.232;27.972;2023-09-07T12:30:14;44974.81;;;-143.84;45.81
6032;BME280;3044;43.232;27.972;2023-09-07T12:32:44;44961.47;;;-143.84;46.66
6032;BME280;3044;43.232;27.972;2023-09-07T12:35:11;44978.63;;;-143.84;44.97
6032;BME280;3044;43.232;27.972;2023-09-07T12:37:38;44951.97;;;-143.84;45.44
6032;BME280;3044;43.232;27.972;2023-09-07T12:40:06;44972.91;;;-143.84;45.50
6032;BME280;3044;43.232;27.972;2023-09-07T12:42:38;44991.94;;;-143.84;45.54
6032;BME280;3044;43.232;27.972;2023-09-07T12:45:07;44961.47;;;-143.84;44.62
6032;BME280;3044;43.232;27.972;2023-09-07T12:47:36;44978.63;;;-143.84;44.01
6032;BME280;3044;43.232;27.972;2023-09-07T12:50:04;44990.03;;;-143.84;43.66
6032;BME280;3044;43.232;27.972;2023-09-07T12:52:32;45005.28;;;-143.84;43.82
6032;BME280;3044;43.232;27.972;2023-09-07T12:55:00;45003.38;;;-143.84;41.88